Impacts TAF Board
For situational awareness. Not to be used for flight planning purposes.
IDs:

KTUL - Tulsa Intl Arpt, OK, US

Issued at 1120 UTC 03 Dec 2021
Updated at 1655 UTC 03 Dec 2021
Potential Impact None Slight Moderate High
Time1553Z 03/17Z 03/18Z 03/19Z 03/20Z 03/21Z 03/22Z 03/23Z 04/00Z 04/01Z 04/02Z 04/03Z 04/04Z 04/05Z>>
Type OBS PRVL PRVL PRVL PRVL PRVL PRVL PRVL PRVL PRVL PRVL PRVL PRVL PRVL
VIS 10 >6 >6 >6 >6 >6 >6 >6 >6 >6 >6 >6 >6 >6
CIG -- 250 250 250 250 250 250 250 250 250 250 250 250 250
Cover SCT BKN BKN BKN BKN BKN BKN BKN BKN BKN BKN BKN BKN BKN
FltCat VFR VFR VFR VFR VFR VFR VFR VFR VFR VFR VFR VFR VFR VFR
WX -- -- -- -- -- -- -- -- -- -- -- -- -- --
WDir 170 190 190 190 190 190 190 190 190 190 190 20 20 20
WSpd 8 8 8 8 8 8 8 8 8 8 8 8 8 8
WGst -- -- -- -- -- -- -- -- -- -- -- -- -- --
WSHgt -- -- -- -- -- -- -- -- -- -- -- -- -- --
WSDir -- -- -- -- -- -- -- -- -- -- -- -- -- --
WSSpd -- -- -- -- -- -- -- -- -- -- -- -- -- --
R08/26
XWnd -8 -8 -8 -8 -8 -8 -8 -8 -8 -8 -8 7 7 7
HWnd 1 -2 -2 -2 -2 -2 -2 -2 -2 -2 -2 3 3 3
R18/36
XWnd 2 -1 -1 -1 -1 -1 -1 -1 -1 -1 -1 2 2 2
HWnd 8 8 8 8 8 8 8 8 8 8 8 -8 -8 -8
Raw TAF
KTUL 031120Z 0312/0412 19008KT P6SM SCT100 BKN250
  FM040300 02008KT P6SM SCT100 BKN250


Raw METAR
KTUL 031553Z 17008KT 10SM SCT250 17/14 A2994 RMK AO2 SLP134 T01720144
KTUL 031453Z 17007KT 9SM SCT250 16/14 A2993 RMK AO2 SLP131 T01560139 51006
KTUL 031353Z 17010KT 8SM SCT200 14/13 A2992 RMK AO2 SLP128 T01390133

METAR Board
Radar Display
Forecast Discussion
For situational awareness. Not to be used for flight planning purposes.